34NY weather

Hendershot Airport
Hilton, New York, United States

Public forecast

Using degrees Fahrenheit for public forecast. Weather courtesy of forecast.io.

Closest aviation weather report (METAR) to Hendershot Airport

Closest report is Greater Rochester International Airport, 12.3 nm (22.8 km) SSE. Retrieved 2020/06/01 06:54 UTC (30 minutes ago):

KROC 010654Z 23004KT 10SM BKN070 OVC080 08/08 A3021 RMK AO2 SLP234 BINOVC T00830083

Closest aviation forecast (TAF) to Hendershot Airport

Closest forecast is Greater Rochester International Airport, 12.3 nm (22.8 km) SSE. Retrieved 2020/06/01 06:24 UTC (1 hour ago):

TAF KROC 010522Z 0106/0206 24004KT P6SM VCSH BKN060 FM011100 27006KT P6SM SCT060 BKN200 FM011500 27011KT P6SM SCT200 FM011900 26014G23KT P6SM SCT200 FM020100 24010KT P6SM BKN200